sensor_id;sensor_type;location;lat;lon;timestamp;P1;durP1;ratioP1;P2;durP2;ratioP2
68074;SDS011;54864;52.002;5.468;2022-10-14T00:00:20;74.30;;;21.10;;
68074;SDS011;54864;52.002;5.468;2022-10-14T00:01:23;88.10;;;23.58;;
68074;SDS011;54864;52.002;5.468;2022-10-14T00:02:24;102.60;;;23.20;;
68074;SDS011;54864;52.002;5.468;2022-10-14T00:03:25;86.43;;;22.90;;
68074;SDS011;54864;52.002;5.468;2022-10-14T00:04:26;65.20;;;22.77;;
68074;SDS011;54864;52.002;5.468;2022-10-14T00:05:29;62.50;;;21.63;;
68074;SDS011;54864;52.002;5.468;2022-10-14T00:06:30;78.10;;;22.70;;
68074;SDS011;54864;52.002;5.468;2022-10-14T00:07:34;82.03;;;23.33;;
68074;SDS011;54864;52.002;5.468;2022-10-14T00:08:35;97.85;;;23.45;;
68074;SDS011;54864;52.002;5.468;2022-10-14T00:09:36;100.88;;;24.30;;
68074;SDS011;54864;52.002;5.468;2022-10-14T00:10:38;110.40;;;24.83;;
68074;SDS011;54864;52.002;5.468;2022-10-14T00:11:40;68.80;;;23.23;;
68074;SDS011;54864;52.002;5.468;2022-10-14T00:12:41;96.30;;;24.75;;
68074;SDS011;54864;52.002;5.468;2022-10-14T00:13:44;91.97;;;23.75;;
68074;SDS011;54864;52.002;5.468;2022-10-14T00:14:47;64.68;;;22.95;;
68074;SDS011;54864;52.002;5.468;2022-10-14T00:15:49;74.85;;;24.48;;
68074;SDS011;54864;52.002;5.468;2022-10-14T00:16:51;79.43;;;23.85;;
68074;SDS011;54864;52.002;5.468;2022-10-14T00:17:54;66.85;;;23.05;;
68074;SDS011;54864;52.002;5.468;2022-10-14T00:18:56;76.82;;;23.80;;
68074;SDS011;54864;52.002;5.468;2022-10-14T00:19:58;57.70;;;23.23;;
68074;SDS011;54864;52.002;5.468;2022-10-14T00:21:00;76.13;;;22.98;;
68074;SDS011;54864;52.002;5.468;2022-10-14T00:22:02;85.07;;;23.10;;
68074;SDS011;54864;52.002;5.468;2022-10-14T00:23:03;66.45;;;24.30;;
68074;SDS011;54864;52.002;5.468;2022-10-14T00:24:05;63.05;;;23.00;;
68074;SDS011;54864;52.002;5.468;2022-10-14T00:25:07;64.90;;;23.23;;
68074;SDS011;54864;52.002;5.468;2022-10-14T00:26:13;78.55;;;23.73;;
68074;SDS011;54864;52.002;5.468;2022-10-14T00:27:15;72.72;;;23.30;;
68074;SDS011;54864;52.002;5.468;2022-10-14T00:28:17;80.47;;;24.40;;
68074;SDS011;54864;52.002;5.468;2022-10-14T00:29:19;90.80;;;26.00;;
68074;SDS011;54864;52.002;5.468;2022-10-14T00:30:21;76.90;;;24.20;;
68074;SDS011;54864;52.002;5.468;2022-10-14T00:31:22;78.80;;;25.35;;
68074;SDS011;54864;52.002;5.468;2022-10-14T00:32:24;79.32;;;24.98;;
68074;SDS011;54864;52.002;5.468;2022-10-14T00:33:25;76.07;;;23.25;;
68074;SDS011;54864;52.002;5.468;2022-10-14T00:34:28;85.13;;;26.35;;
68074;SDS011;54864;52.002;5.468;2022-10-14T00:35:29;90.70;;;24.63;;
68074;SDS011;54864;52.002;5.468;2022-10-14T00:36:31;81.45;;;25.60;;
68074;SDS011;54864;52.002;5.468;2022-10-14T00:37:32;86.10;;;26.23;;
68074;SDS011;54864;52.002;5.468;2022-10-14T00:38:34;65.72;;;25.23;;
68074;SDS011;54864;52.002;5.468;2022-10-14T00:39:36;63.58;;;24.63;;
68074;SDS011;54864;52.002;5.468;2022-10-14T00:40:38;73.97;;;24.38;;
68074;SDS011;54864;52.002;5.468;2022-10-14T00:41:40;67.15;;;25.30;;
68074;SDS011;54864;52.002;5.468;2022-10-14T00:42:43;71.72;;;25.83;;
68074;SDS011;54864;52.002;5.468;2022-10-14T00:43:54;67.25;;;24.02;;
68074;SDS011;54864;52.002;5.468;2022-10-14T00:45:03;93.90;;;25.58;;
68074;SDS011;54864;52.002;5.468;2022-10-14T00:46:12;53.22;;;24.00;;
68074;SDS011;54864;52.002;5.468;2022-10-14T00:47:13;70.27;;;25.50;;
68074;SDS011;54864;52.002;5.468;2022-10-14T00:48:14;83.90;;;25.97;;
68074;SDS011;54864;52.002;5.468;2022-10-14T00:49:20;86.50;;;27.92;;
68074;SDS011;54864;52.002;5.468;2022-10-14T00:50:28;57.58;;;24.40;;
68074;SDS011;54864;52.002;5.468;2022-10-14T00:51:29;61.13;;;24.98;;
68074;SDS011;54864;52.002;5.468;2022-10-14T00:52:31;71.53;;;26.13;;
68074;SDS011;54864;52.002;5.468;2022-10-14T00:53:33;54.30;;;26.23;;
68074;SDS011;54864;52.002;5.468;2022-10-14T00:54:36;84.68;;;25.40;;
68074;SDS011;54864;52.002;5.468;2022-10-14T00:55:42;107.63;;;26.52;;
68074;SDS011;54864;52.002;5.468;2022-10-14T00:56:44;84.72;;;26.55;;
68074;SDS011;54864;52.002;5.468;2022-10-14T00:57:47;87.05;;;24.52;;
68074;SDS011;54864;52.002;5.468;2022-10-14T00:58:49;79.35;;;24.75;;
68074;SDS011;54864;52.002;5.468;2022-10-14T00:59:51;84.22;;;25.27;;
68074;SDS011;54864;52.002;5.468;2022-10-14T01:01:01;63.60;;;24.75;;
68074;SDS011;54864;52.002;5.468;2022-10-14T01:02:02;74.00;;;25.58;;
68074;SDS011;54864;52.002;5.468;2022-10-14T01:03:06;93.38;;;24.92;;
68074;SDS011;54864;52.002;5.468;2022-10-14T01:04:09;85.93;;;24.83;;
68074;SDS011;54864;52.002;5.468;2022-10-14T01:05:11;100.03;;;24.92;;
68074;SDS011;54864;52.002;5.468;2022-10-14T01:06:19;91.40;;;25.05;;
68074;SDS011;54864;52.002;5.468;2022-10-14T01:07:39;91.07;;;25.70;;
68074;SDS011;54864;52.002;5.468;2022-10-14T01:08:54;68.10;;;24.48;;
68074;SDS011;54864;52.002;5.468;2022-10-14T01:10:10;91.47;;;27.58;;
68074;SDS011;54864;52.002;5.468;2022-10-14T01:11:24;81.15;;;26.45;;
68074;SDS011;54864;52.002;5.468;2022-10-14T01:12:40;100.43;;;26.98;;
68074;SDS011;54864;52.002;5.468;2022-10-14T01:14:00;64.57;;;24.70;;
68074;SDS011;54864;52.002;5.468;2022-10-14T01:15:14;69.70;;;24.77;;
68074;SDS011;54864;52.002;5.468;2022-10-14T01:16:28;72.38;;;24.67;;
68074;SDS011;54864;52.002;5.468;2022-10-14T01:17:49;73.00;;;25.85;;
68074;SDS011;54864;52.002;5.468;2022-10-14T01:19:15;82.45;;;25.95;;
68074;SDS011;54864;52.002;5.468;2022-10-14T01:20:48;59.42;;;24.90;;
68074;SDS011;54864;52.002;5.468;2022-10-14T01:22:19;67.15;;;26.33;;
68074;SDS011;54864;52.002;5.468;2022-10-14T01:23:33;52.55;;;24.40;;
68074;SDS011;54864;52.002;5.468;2022-10-14T01:24:54;60.40;;;25.20;;
68074;SDS011;54864;52.002;5.468;2022-10-14T01:26:11;68.72;;;26.05;;
68074;SDS011;54864;52.002;5.468;2022-10-14T01:27:47;69.20;;;27.23;;
68074;SDS011;54864;52.002;5.468;2022-10-14T01:29:12;88.15;;;29.35;;
68074;SDS011;54864;52.002;5.468;2022-10-14T01:30:32;69.07;;;28.92;;
68074;SDS011;54864;52.002;5.468;2022-10-14T01:31:37;79.32;;;29.13;;
68074;SDS011;54864;52.002;5.468;2022-10-14T01:32:49;76.43;;;29.80;;
68074;SDS011;54864;52.002;5.468;2022-10-14T01:34:06;70.13;;;29.67;;
68074;SDS011;54864;52.002;5.468;2022-10-14T01:35:15;66.22;;;29.13;;
68074;SDS011;54864;52.002;5.468;2022-10-14T01:36:30;79.28;;;29.15;;
68074;SDS011;54864;52.002;5.468;2022-10-14T01:37:42;71.75;;;28.95;;
68074;SDS011;54864;52.002;5.468;2022-10-14T01:38:54;68.82;;;30.08;;
68074;SDS011;54864;52.002;5.468;2022-10-14T01:40:04;59.20;;;30.13;;
68074;SDS011;54864;52.002;5.468;2022-10-14T01:41:17;54.58;;;30.30;;
68074;SDS011;54864;52.002;5.468;2022-10-14T01:42:26;55.90;;;30.45;;
68074;SDS011;54864;52.002;5.468;2022-10-14T01:43:33;51.40;;;29.35;;
68074;SDS011;54864;52.002;5.468;2022-10-14T01:44:38;63.40;;;29.70;;
68074;SDS011;54864;52.002;5.468;2022-10-14T01:45:44;75.00;;;30.08;;
68074;SDS011;54864;52.002;5.468;2022-10-14T01:46:51;49.95;;;29.92;;
68074;SDS011;54864;52.002;5.468;2022-10-14T01:47:54;58.08;;;30.02;;
68074;SDS011;54864;52.002;5.468;2022-10-14T01:49:01;52.17;;;28.73;;
68074;SDS011;54864;52.002;5.468;2022-10-14T01:50:10;56.45;;;29.55;;
68074;SDS011;54864;52.002;5.468;2022-10-14T01:51:16;72.90;;;29.80;;
68074;SDS011;54864;52.002;5.468;2022-10-14T01:52:24;70.97;;;29.92;;
68074;SDS011;54864;52.002;5.468;2022-10-14T01:53:31;57.13;;;29.27;;
68074;SDS011;54864;52.002;5.468;2022-10-14T01:54:40;56.35;;;30.52;;
68074;SDS011;54864;52.002;5.468;2022-10-14T01:55:46;65.90;;;30.65;;
68074;SDS011;54864;52.002;5.468;2022-10-14T01:56:52;50.33;;;30.92;;
68074;SDS011;54864;52.002;5.468;2022-10-14T01:57:58;62.27;;;29.90;;
68074;SDS011;54864;52.002;5.468;2022-10-14T01:59:02;55.92;;;30.45;;
68074;SDS011;54864;52.002;5.468;2022-10-14T02:00:04;85.13;;;32.47;;
68074;SDS011;54864;52.002;5.468;2022-10-14T02:01:09;62.83;;;31.55;;
68074;SDS011;54864;52.002;5.468;2022-10-14T02:02:12;61.95;;;30.90;;
68074;SDS011;54864;52.002;5.468;2022-10-14T02:03:13;63.22;;;29.77;;
68074;SDS011;54864;52.002;5.468;2022-10-14T02:04:15;69.82;;;31.27;;
68074;SDS011;54864;52.002;5.468;2022-10-14T02:05:20;71.03;;;31.45;;
68074;SDS011;54864;52.002;5.468;2022-10-14T02:06:29;64.40;;;30.88;;
68074;SDS011;54864;52.002;5.468;2022-10-14T02:07:37;59.75;;;30.17;;
68074;SDS011;54864;52.002;5.468;2022-10-14T02:08:48;52.63;;;30.77;;
68074;SDS011;54864;52.002;5.468;2022-10-14T02:10:09;65.68;;;31.05;;
68074;SDS011;54864;52.002;5.468;2022-10-14T02:11:25;81.15;;;30.95;;
68074;SDS011;54864;52.002;5.468;2022-10-14T02:12:34;60.55;;;30.92;;
68074;SDS011;54864;52.002;5.468;2022-10-14T02:13:50;60.15;;;31.45;;
68074;SDS011;54864;52.002;5.468;2022-10-14T02:15:10;57.75;;;30.92;;
68074;SDS011;54864;52.002;5.468;2022-10-14T02:16:24;54.50;;;31.15;;
68074;SDS011;54864;52.002;5.468;2022-10-14T02:17:35;56.95;;;32.75;;
68074;SDS011;54864;52.002;5.468;2022-10-14T02:18:46;65.90;;;32.38;;
68074;SDS011;54864;52.002;5.468;2022-10-14T02:19:54;50.50;;;30.65;;
68074;SDS011;54864;52.002;5.468;2022-10-14T02:21:09;54.85;;;33.17;;
68074;SDS011;54864;52.002;5.468;2022-10-14T02:22:23;51.42;;;31.75;;
68074;SDS011;54864;52.002;5.468;2022-10-14T02:23:28;49.03;;;31.73;;
68074;SDS011;54864;52.002;5.468;2022-10-14T02:24:38;45.90;;;30.45;;
68074;SDS011;54864;52.002;5.468;2022-10-14T02:25:45;64.03;;;32.17;;
68074;SDS011;54864;52.002;5.468;2022-10-14T02:26:52;53.67;;;31.83;;
68074;SDS011;54864;52.002;5.468;2022-10-14T02:28:01;48.50;;;31.02;;
68074;SDS011;54864;52.002;5.468;2022-10-14T02:29:16;49.22;;;32.83;;
68074;SDS011;54864;52.002;5.468;2022-10-14T02:30:28;45.65;;;31.13;;
68074;SDS011;54864;52.002;5.468;2022-10-14T02:31:43;55.10;;;33.72;;
68074;SDS011;54864;52.002;5.468;2022-10-14T02:32:56;50.70;;;32.92;;
68074;SDS011;54864;52.002;5.468;2022-10-14T02:34:01;52.92;;;32.85;;
68074;SDS011;54864;52.002;5.468;2022-10-14T02:35:18;46.95;;;32.17;;
68074;SDS011;54864;52.002;5.468;2022-10-14T02:36:32;48.65;;;31.65;;
68074;SDS011;54864;52.002;5.468;2022-10-14T02:37:36;48.90;;;31.92;;
68074;SDS011;54864;52.002;5.468;2022-10-14T02:38:47;59.92;;;32.60;;
68074;SDS011;54864;52.002;5.468;2022-10-14T02:39:56;49.55;;;33.10;;
68074;SDS011;54864;52.002;5.468;2022-10-14T02:41:11;61.28;;;33.63;;
68074;SDS011;54864;52.002;5.468;2022-10-14T02:42:17;47.55;;;32.05;;
68074;SDS011;54864;52.002;5.468;2022-10-14T02:43:21;57.50;;;33.55;;
68074;SDS011;54864;52.002;5.468;2022-10-14T02:44:23;68.78;;;33.30;;
68074;SDS011;54864;52.002;5.468;2022-10-14T02:45:25;67.95;;;34.97;;
68074;SDS011;54864;52.002;5.468;2022-10-14T02:46:27;60.47;;;34.60;;
68074;SDS011;54864;52.002;5.468;2022-10-14T02:47:30;54.50;;;34.20;;
68074;SDS011;54864;52.002;5.468;2022-10-14T02:48:38;55.53;;;34.50;;
68074;SDS011;54864;52.002;5.468;2022-10-14T02:49:46;52.57;;;33.10;;
68074;SDS011;54864;52.002;5.468;2022-10-14T02:50:48;65.68;;;34.55;;
68074;SDS011;54864;52.002;5.468;2022-10-14T02:51:51;55.58;;;34.47;;
68074;SDS011;54864;52.002;5.468;2022-10-14T02:52:55;53.40;;;34.22;;
68074;SDS011;54864;52.002;5.468;2022-10-14T02:53:55;49.10;;;34.13;;
68074;SDS011;54864;52.002;5.468;2022-10-14T02:54:57;51.35;;;34.63;;
68074;SDS011;54864;52.002;5.468;2022-10-14T02:56:00;56.30;;;33.40;;
68074;SDS011;54864;52.002;5.468;2022-10-14T02:57:03;55.63;;;32.72;;
68074;SDS011;54864;52.002;5.468;2022-10-14T02:58:06;51.95;;;33.65;;
68074;SDS011;54864;52.002;5.468;2022-10-14T02:59:23;50.30;;;34.17;;
68074;SDS011;54864;52.002;5.468;2022-10-14T03:00:34;55.58;;;33.20;;
68074;SDS011;54864;52.002;5.468;2022-10-14T03:01:41;57.85;;;33.85;;
68074;SDS011;54864;52.002;5.468;2022-10-14T03:02:54;55.15;;;32.88;;
68074;SDS011;54864;52.002;5.468;2022-10-14T03:03:56;55.58;;;35.13;;
68074;SDS011;54864;52.002;5.468;2022-10-14T03:05:11;53.25;;;33.72;;
68074;SDS011;54864;52.002;5.468;2022-10-14T03:06:14;57.40;;;34.15;;
68074;SDS011;54864;52.002;5.468;2022-10-14T03:07:14;57.70;;;34.43;;
68074;SDS011;54864;52.002;5.468;2022-10-14T03:08:16;55.10;;;33.20;;
68074;SDS011;54864;52.002;5.468;2022-10-14T03:09:17;57.08;;;34.45;;
68074;SDS011;54864;52.002;5.468;2022-10-14T03:10:19;59.05;;;36.50;;
68074;SDS011;54864;52.002;5.468;2022-10-14T03:11:20;55.33;;;35.13;;
68074;SDS011;54864;52.002;5.468;2022-10-14T03:12:22;55.00;;;36.55;;
68074;SDS011;54864;52.002;5.468;2022-10-14T03:13:23;51.97;;;35.15;;
68074;SDS011;54864;52.002;5.468;2022-10-14T03:14:25;62.35;;;36.92;;
68074;SDS011;54864;52.002;5.468;2022-10-14T03:15:25;62.03;;;37.03;;
68074;SDS011;54864;52.002;5.468;2022-10-14T03:16:28;51.72;;;35.17;;
68074;SDS011;54864;52.002;5.468;2022-10-14T03:17:29;59.83;;;36.40;;
68074;SDS011;54864;52.002;5.468;2022-10-14T03:18:38;60.13;;;37.55;;
68074;SDS011;54864;52.002;5.468;2022-10-14T03:19:42;50.67;;;35.15;;
68074;SDS011;54864;52.002;5.468;2022-10-14T03:20:49;54.70;;;36.03;;
68074;SDS011;54864;52.002;5.468;2022-10-14T03:21:53;57.47;;;35.00;;
68074;SDS011;54864;52.002;5.468;2022-10-14T03:22:55;60.45;;;35.20;;
68074;SDS011;54864;52.002;5.468;2022-10-14T03:23:56;57.22;;;35.78;;
68074;SDS011;54864;52.002;5.468;2022-10-14T03:25:01;56.92;;;36.50;;
68074;SDS011;54864;52.002;5.468;2022-10-14T03:26:08;54.63;;;36.03;;
68074;SDS011;54864;52.002;5.468;2022-10-14T03:27:09;58.05;;;37.25;;
68074;SDS011;54864;52.002;5.468;2022-10-14T03:28:10;55.73;;;35.97;;
68074;SDS011;54864;52.002;5.468;2022-10-14T03:29:22;64.93;;;36.03;;
68074;SDS011;54864;52.002;5.468;2022-10-14T03:30:23;71.40;;;38.23;;
68074;SDS011;54864;52.002;5.468;2022-10-14T03:31:25;75.88;;;38.85;;
68074;SDS011;54864;52.002;5.468;2022-10-14T03:32:26;60.35;;;38.00;;
68074;SDS011;54864;52.002;5.468;2022-10-14T03:33:28;60.22;;;36.80;;
68074;SDS011;54864;52.002;5.468;2022-10-14T03:34:33;59.47;;;38.42;;
68074;SDS011;54864;52.002;5.468;2022-10-14T03:35:34;53.70;;;36.25;;
68074;SDS011;54864;52.002;5.468;2022-10-14T03:36:35;56.03;;;37.17;;
68074;SDS011;54864;52.002;5.468;2022-10-14T03:37:37;63.03;;;38.63;;
68074;SDS011;54864;52.002;5.468;2022-10-14T03:38:38;66.60;;;37.92;;
68074;SDS011;54864;52.002;5.468;2022-10-14T03:39:43;68.65;;;39.33;;
68074;SDS011;54864;52.002;5.468;2022-10-14T03:40:44;71.60;;;39.50;;
68074;SDS011;54864;52.002;5.468;2022-10-14T03:41:46;67.57;;;39.75;;
68074;SDS011;54864;52.002;5.468;2022-10-14T03:42:47;64.60;;;38.58;;
68074;SDS011;54864;52.002;5.468;2022-10-14T03:43:49;63.97;;;38.60;;
68074;SDS011;54864;52.002;5.468;2022-10-14T03:44:50;63.08;;;38.72;;
68074;SDS011;54864;52.002;5.468;2022-10-14T03:45:52;73.05;;;40.58;;
68074;SDS011;54864;52.002;5.468;2022-10-14T03:46:53;74.15;;;39.83;;
68074;SDS011;54864;52.002;5.468;2022-10-14T03:47:54;66.40;;;39.92;;
68074;SDS011;54864;52.002;5.468;2022-10-14T03:48:55;61.50;;;39.50;;
68074;SDS011;54864;52.002;5.468;2022-10-14T03:50:12;65.50;;;38.45;;
68074;SDS011;54864;52.002;5.468;2022-10-14T03:51:13;66.75;;;40.40;;
68074;SDS011;54864;52.002;5.468;2022-10-14T03:52:15;76.65;;;40.22;;
68074;SDS011;54864;52.002;5.468;2022-10-14T03:53:16;72.03;;;38.65;;
68074;SDS011;54864;52.002;5.468;2022-10-14T03:54:21;69.13;;;40.30;;
68074;SDS011;54864;52.002;5.468;2022-10-14T03:55:22;68.03;;;39.50;;
68074;SDS011;54864;52.002;5.468;2022-10-14T03:56:35;67.50;;;40.67;;
68074;SDS011;54864;52.002;5.468;2022-10-14T03:57:36;60.53;;;39.88;;
68074;SDS011;54864;52.002;5.468;2022-10-14T03:58:37;60.78;;;38.78;;
68074;SDS011;54864;52.002;5.468;2022-10-14T03:59:39;65.90;;;40.40;;
68074;SDS011;54864;52.002;5.468;2022-10-14T04:00:47;73.28;;;39.90;;
68074;SDS011;54864;52.002;5.468;2022-10-14T04:02:11;62.90;;;39.70;;
68074;SDS011;54864;52.002;5.468;2022-10-14T04:03:24;60.90;;;38.60;;
68074;SDS011;54864;52.002;5.468;2022-10-14T04:04:25;61.17;;;39.63;;
68074;SDS011;54864;52.002;5.468;2022-10-14T04:05:35;63.35;;;39.92;;
68074;SDS011;54864;52.002;5.468;2022-10-14T04:06:36;64.22;;;40.15;;
68074;SDS011;54864;52.002;5.468;2022-10-14T04:07:38;65.03;;;39.10;;
68074;SDS011;54864;52.002;5.468;2022-10-14T04:08:39;65.18;;;40.22;;
68074;SDS011;54864;52.002;5.468;2022-10-14T04:09:41;70.80;;;39.60;;
68074;SDS011;54864;52.002;5.468;2022-10-14T04:10:42;66.25;;;40.58;;
68074;SDS011;54864;52.002;5.468;2022-10-14T04:11:44;62.92;;;39.17;;
68074;SDS011;54864;52.002;5.468;2022-10-14T04:12:45;61.72;;;39.72;;
68074;SDS011;54864;52.002;5.468;2022-10-14T04:13:47;62.85;;;40.03;;
68074;SDS011;54864;52.002;5.468;2022-10-14T04:14:48;72.93;;;39.67;;
68074;SDS011;54864;52.002;5.468;2022-10-14T04:15:50;72.75;;;42.28;;
68074;SDS011;54864;52.002;5.468;2022-10-14T04:16:51;77.47;;;42.57;;
68074;SDS011;54864;52.002;5.468;2022-10-14T04:17:54;69.18;;;42.08;;
68074;SDS011;54864;52.002;5.468;2022-10-14T04:18:56;69.18;;;40.70;;
68074;SDS011;54864;52.002;5.468;2022-10-14T04:19:58;69.90;;;40.65;;
68074;SDS011;54864;52.002;5.468;2022-10-14T04:21:01;64.40;;;40.10;;
68074;SDS011;54864;52.002;5.468;2022-10-14T04:22:05;72.32;;;41.28;;
68074;SDS011;54864;52.002;5.468;2022-10-14T04:23:06;70.23;;;42.63;;
68074;SDS011;54864;52.002;5.468;2022-10-14T04:24:08;68.68;;;41.55;;
68074;SDS011;54864;52.002;5.468;2022-10-14T04:25:09;67.00;;;40.50;;
68074;SDS011;54864;52.002;5.468;2022-10-14T04:26:11;70.07;;;41.05;;
68074;SDS011;54864;52.002;5.468;2022-10-14T04:27:11;70.07;;;41.00;;
68074;SDS011;54864;52.002;5.468;2022-10-14T04:28:13;70.80;;;41.87;;
68074;SDS011;54864;52.002;5.468;2022-10-14T04:29:14;81.27;;;43.30;;
68074;SDS011;54864;52.002;5.468;2022-10-14T04:30:16;71.65;;;42.40;;
68074;SDS011;54864;52.002;5.468;2022-10-14T04:31:19;74.82;;;42.38;;
68074;SDS011;54864;52.002;5.468;2022-10-14T04:32:22;71.30;;;42.25;;
68074;SDS011;54864;52.002;5.468;2022-10-14T04:33:23;72.43;;;41.67;;
68074;SDS011;54864;52.002;5.468;2022-10-14T04:34:25;75.90;;;42.63;;
68074;SDS011;54864;52.002;5.468;2022-10-14T04:35:26;76.38;;;42.75;;
68074;SDS011;54864;52.002;5.468;2022-10-14T04:36:29;92.93;;;44.30;;
68074;SDS011;54864;52.002;5.468;2022-10-14T04:37:30;73.00;;;42.78;;
68074;SDS011;54864;52.002;5.468;2022-10-14T04:38:32;72.32;;;43.20;;
68074;SDS011;54864;52.002;5.468;2022-10-14T04:39:33;73.93;;;42.85;;
68074;SDS011;54864;52.002;5.468;2022-10-14T04:40:35;77.03;;;42.58;;
68074;SDS011;54864;52.002;5.468;2022-10-14T04:41:36;69.88;;;41.03;;
68074;SDS011;54864;52.002;5.468;2022-10-14T04:42:38;69.65;;;42.38;;
68074;SDS011;54864;52.002;5.468;2022-10-14T04:43:39;68.90;;;41.23;;
68074;SDS011;54864;52.002;5.468;2022-10-14T04:44:41;69.05;;;40.38;;
68074;SDS011;54864;52.002;5.468;2022-10-14T04:46:09;66.88;;;39.70;;
68074;SDS011;54864;52.002;5.468;2022-10-14T04:47:11;71.85;;;42.13;;
68074;SDS011;54864;52.002;5.468;2022-10-14T04:48:18;71.18;;;41.78;;
68074;SDS011;54864;52.002;5.468;2022-10-14T04:49:21;71.05;;;41.28;;
68074;SDS011;54864;52.002;5.468;2022-10-14T04:50:23;66.77;;;40.43;;
68074;SDS011;54864;52.002;5.468;2022-10-14T04:51:25;67.38;;;39.72;;
68074;SDS011;54864;52.002;5.468;2022-10-14T04:52:29;77.57;;;41.88;;
68074;SDS011;54864;52.002;5.468;2022-10-14T04:53:31;74.03;;;43.35;;
68074;SDS011;54864;52.002;5.468;2022-10-14T04:54:33;67.03;;;41.17;;
68074;SDS011;54864;52.002;5.468;2022-10-14T04:55:44;66.88;;;39.97;;
68074;SDS011;54864;52.002;5.468;2022-10-14T04:56:48;70.03;;;41.13;;
68074;SDS011;54864;52.002;5.468;2022-10-14T04:57:50;64.85;;;40.20;;
68074;SDS011;54864;52.002;5.468;2022-10-14T04:58:51;65.90;;;39.17;;
68074;SDS011;54864;52.002;5.468;2022-10-14T04:59:53;64.35;;;39.63;;
68074;SDS011;54864;52.002;5.468;2022-10-14T05:00:54;63.70;;;39.03;;
68074;SDS011;54864;52.002;5.468;2022-10-14T05:01:56;67.22;;;39.42;;
68074;SDS011;54864;52.002;5.468;2022-10-14T05:02:57;67.55;;;40.45;;
68074;SDS011;54864;52.002;5.468;2022-10-14T05:03:59;66.10;;;40.78;;
68074;SDS011;54864;52.002;5.468;2022-10-14T05:04:59;68.45;;;39.70;;
68074;SDS011;54864;52.002;5.468;2022-10-14T05:06:01;62.90;;;38.90;;
68074;SDS011;54864;52.002;5.468;2022-10-14T05:07:02;68.57;;;40.00;;
68074;SDS011;54864;52.002;5.468;2022-10-14T05:08:05;61.72;;;38.22;;
68074;SDS011;54864;52.002;5.468;2022-10-14T05:09:07;64.32;;;39.25;;
68074;SDS011;54864;52.002;5.468;2022-10-14T05:10:08;65.97;;;39.20;;
68074;SDS011;54864;52.002;5.468;2022-10-14T05:11:09;66.57;;;38.63;;
68074;SDS011;54864;52.002;5.468;2022-10-14T05:12:11;69.50;;;40.40;;
68074;SDS011;54864;52.002;5.468;2022-10-14T05:13:13;64.40;;;39.50;;
68074;SDS011;54864;52.002;5.468;2022-10-14T05:14:15;71.88;;;39.90;;
68074;SDS011;54864;52.002;5.468;2022-10-14T05:15:16;63.55;;;38.85;;
68074;SDS011;54864;52.002;5.468;2022-10-14T05:16:18;61.80;;;37.53;;
68074;SDS011;54864;52.002;5.468;2022-10-14T05:17:19;63.90;;;38.35;;
68074;SDS011;54864;52.002;5.468;2022-10-14T05:18:21;61.37;;;37.10;;
68074;SDS011;54864;52.002;5.468;2022-10-14T05:19:22;59.80;;;37.97;;
68074;SDS011;54864;52.002;5.468;2022-10-14T05:20:24;63.88;;;36.08;;
68074;SDS011;54864;52.002;5.468;2022-10-14T05:21:25;56.40;;;35.00;;
68074;SDS011;54864;52.002;5.468;2022-10-14T05:22:27;60.42;;;36.58;;
68074;SDS011;54864;52.002;5.468;2022-10-14T05:23:29;56.88;;;35.83;;
68074;SDS011;54864;52.002;5.468;2022-10-14T05:24:31;62.40;;;36.75;;
68074;SDS011;54864;52.002;5.468;2022-10-14T05:25:32;62.17;;;36.92;;
68074;SDS011;54864;52.002;5.468;2022-10-14T05:26:34;60.97;;;36.17;;
68074;SDS011;54864;52.002;5.468;2022-10-14T05:27:34;58.42;;;34.13;;
68074;SDS011;54864;52.002;5.468;2022-10-14T05:28:36;63.92;;;33.70;;
68074;SDS011;54864;52.002;5.468;2022-10-14T05:29:37;53.63;;;32.67;;
68074;SDS011;54864;52.002;5.468;2022-10-14T05:30:40;48.40;;;31.83;;
68074;SDS011;54864;52.002;5.468;2022-10-14T05:31:41;50.75;;;31.48;;
68074;SDS011;54864;52.002;5.468;2022-10-14T05:32:43;49.45;;;31.10;;
68074;SDS011;54864;52.002;5.468;2022-10-14T05:33:44;44.65;;;29.73;;
68074;SDS011;54864;52.002;5.468;2022-10-14T05:34:46;46.22;;;30.02;;
68074;SDS011;54864;52.002;5.468;2022-10-14T05:35:46;45.07;;;30.00;;
68074;SDS011;54864;52.002;5.468;2022-10-14T05:36:48;53.25;;;31.48;;
68074;SDS011;54864;52.002;5.468;2022-10-14T05:37:52;40.33;;;28.48;;
68074;SDS011;54864;52.002;5.468;2022-10-14T05:38:56;41.88;;;28.70;;
68074;SDS011;54864;52.002;5.468;2022-10-14T05:39:58;39.97;;;27.30;;
68074;SDS011;54864;52.002;5.468;2022-10-14T05:40:59;44.50;;;28.30;;
68074;SDS011;54864;52.002;5.468;2022-10-14T05:42:01;40.75;;;28.17;;
68074;SDS011;54864;52.002;5.468;2022-10-14T05:43:02;40.70;;;27.33;;
68074;SDS011;54864;52.002;5.468;2022-10-14T05:44:03;41.00;;;26.70;;
68074;SDS011;54864;52.002;5.468;2022-10-14T05:45:06;38.25;;;27.17;;
68074;SDS011;54864;52.002;5.468;2022-10-14T05:46:07;39.55;;;26.42;;
68074;SDS011;54864;52.002;5.468;2022-10-14T05:47:09;35.60;;;25.38;;
68074;SDS011;54864;52.002;5.468;2022-10-14T05:48:10;39.58;;;26.77;;
68074;SDS011;54864;52.002;5.468;2022-10-14T05:49:12;37.92;;;24.23;;
68074;SDS011;54864;52.002;5.468;2022-10-14T05:50:13;35.30;;;24.60;;
68074;SDS011;54864;52.002;5.468;2022-10-14T05:51:15;36.00;;;25.75;;
68074;SDS011;54864;52.002;5.468;2022-10-14T05:52:20;38.47;;;24.75;;
68074;SDS011;54864;52.002;5.468;2022-10-14T05:53:21;36.90;;;25.27;;
68074;SDS011;54864;52.002;5.468;2022-10-14T05:54:24;32.72;;;23.85;;
68074;SDS011;54864;52.002;5.468;2022-10-14T05:55:27;30.67;;;22.73;;
68074;SDS011;54864;52.002;5.468;2022-10-14T05:56:28;33.15;;;24.50;;
68074;SDS011;54864;52.002;5.468;2022-10-14T05:57:30;31.65;;;24.40;;
68074;SDS011;54864;52.002;5.468;2022-10-14T05:58:32;30.40;;;22.60;;
68074;SDS011;54864;52.002;5.468;2022-10-14T05:59:34;31.92;;;23.38;;
68074;SDS011;54864;52.002;5.468;2022-10-14T06:00:35;28.95;;;22.08;;
68074;SDS011;54864;52.002;5.468;2022-10-14T06:01:38;27.60;;;22.45;;
68074;SDS011;54864;52.002;5.468;2022-10-14T06:02:39;30.03;;;22.10;;
68074;SDS011;54864;52.002;5.468;2022-10-14T06:03:41;26.90;;;21.38;;
68074;SDS011;54864;52.002;5.468;2022-10-14T06:04:43;25.92;;;20.25;;
68074;SDS011;54864;52.002;5.468;2022-10-14T06:05:44;27.02;;;18.90;;
68074;SDS011;54864;52.002;5.468;2022-10-14T06:06:46;27.35;;;20.00;;
68074;SDS011;54864;52.002;5.468;2022-10-14T06:07:47;26.90;;;20.75;;
68074;SDS011;54864;52.002;5.468;2022-10-14T06:08:49;25.15;;;19.58;;
68074;SDS011;54864;52.002;5.468;2022-10-14T06:09:51;25.37;;;19.20;;
68074;SDS011;54864;52.002;5.468;2022-10-14T06:10:53;25.38;;;19.90;;
68074;SDS011;54864;52.002;5.468;2022-10-14T06:11:54;22.95;;;18.70;;
68074;SDS011;54864;52.002;5.468;2022-10-14T06:12:56;24.77;;;18.92;;
68074;SDS011;54864;52.002;5.468;2022-10-14T06:13:57;24.63;;;19.00;;
68074;SDS011;54864;52.002;5.468;2022-10-14T06:14:58;20.38;;;17.38;;
68074;SDS011;54864;52.002;5.468;2022-10-14T06:16:01;21.40;;;17.73;;
68074;SDS011;54864;52.002;5.468;2022-10-14T06:17:05;23.38;;;17.85;;
68074;SDS011;54864;52.002;5.468;2022-10-14T06:18:06;21.10;;;17.80;;
68074;SDS011;54864;52.002;5.468;2022-10-14T06:19:08;22.00;;;17.50;;